Time;durP1;ratioP1;P1;durP2;ratioP2;P2;SDS_P1;SDS_P2;PMS_P1;PMS_P2;Temp;Humidity;BMP_temperature;BMP_pressure;BME280_temperature;BME280_humidity;BME280_pressure;Samples;Min_cycle;Max_cycle;Signal;HPM_P1;HPM_P2
2022/01/14 00:02:16;;;;;;;;;46.50;35.00;;;;;2.94;71.63;102992.00;5080067;27;45825;-63
2022/01/14 00:04:41;;;;;;;;;48.75;36.50;;;;;2.92;71.43;102992.94;5098027;27;50005;-62
2022/01/14 00:07:06;;;;;;;;;52.00;38.25;;;;;2.91;71.55;102993.81;5079894;27;46966;-63
2022/01/14 00:09:33;;;;;;;;;52.50;38.00;;;;;2.90;71.27;102981.72;5079397;27;59923;-61
2022/01/14 00:11:59;;;;;;;;;57.00;40.75;;;;;2.88;71.40;102973.09;5097956;27;46607;-63
2022/01/14 00:14:45;;;;;;;;;60.00;44.75;;;;;2.88;71.30;102975.69;5098043;27;45773;-64
2022/01/14 00:17:12;;;;;;;;;60.25;44.00;;;;;2.87;71.06;102976.56;5098171;27;45386;-63
2022/01/14 00:19:38;;;;;;;;;53.25;42.00;;;;;2.85;71.06;102976.59;5097965;27;45250;-64
2022/01/14 00:22:13;;;;;;;;;57.50;43.75;;;;;2.84;70.92;102976.63;5062705;27;46510;-62
2022/01/14 00:33:09;;;;;;;;;50.75;40.50;;;;;2.73;70.86;102979.41;5097680;27;45425;-63
2022/01/14 00:35:40;;;;;;;;;44.75;34.75;;;;;2.70;70.92;102974.25;5097689;27;45312;-63
2022/01/14 00:38:06;;;;;;;;;44.00;34.50;;;;;2.66;71.02;102979.50;5063743;27;45573;-64
2022/01/14 00:40:31;;;;;;;;;46.75;37.00;;;;;2.65;70.90;102976.94;5078564;27;66741;-65
2022/01/14 00:42:57;;;;;;;;;45.25;35.25;;;;;2.63;70.97;102976.09;5062285;27;45460;-64
2022/01/14 00:45:22;;;;;;;;;53.75;41.00;;;;;2.60;71.36;102971.78;5061509;27;59309;-61
2022/01/14 00:47:48;;;;;;;;;52.00;41.25;;;;;2.59;71.07;102969.22;5078203;27;67366;-63
2022/01/14 00:50:14;;;;;;;;;48.75;38.75;;;;;2.59;71.25;102969.22;5079363;27;45450;-63
2022/01/14 00:52:40;;;;;;;;;55.25;39.75;;;;;2.58;70.89;102965.75;5078824;27;46218;-64
2022/01/14 00:55:07;;;;;;;;;49.50;40.75;;;;;2.56;71.07;102967.53;5061719;27;45271;-63
2022/01/14 01:00:17;;;;;;;;;49.50;38.50;;;;;2.56;71.23;102975.31;5081898;27;45460;-63
2022/01/14 01:02:43;;;;;;;;;61.25;44.75;;;;;2.56;70.89;102966.69;5096842;27;46446;-64
2022/01/14 01:05:08;;;;;;;;;60.00;44.25;;;;;2.54;71.00;102958.06;5078694;27;45280;-62
2022/01/14 01:07:34;;;;;;;;;61.50;44.50;;;;;2.54;70.99;102966.69;5078899;27;45342;-62
2022/01/14 01:09:59;;;;;;;;;55.75;44.00;;;;;2.56;70.81;102956.31;5079000;27;45435;-63
2022/01/14 01:15:04;;;;;;;;;60.75;47.00;;;;;2.56;71.04;102958.91;5097095;27;45322;-62
2022/01/14 01:17:30;;;;;;;;;64.50;46.25;;;;;2.56;70.80;102958.91;5079021;27;45374;-62
2022/01/14 01:19:55;;;;;;;;;54.75;43.00;;;;;2.55;70.70;102954.59;5096995;27;45219;-64
2022/01/14 01:22:20;;;;;;;;;62.00;45.25;;;;;2.54;70.60;102953.72;5095941;27;71176;-62
2022/01/14 01:24:46;;;;;;;;;61.50;45.75;;;;;2.54;70.88;102960.66;5095964;27;73372;-61
2022/01/14 01:27:13;;;;;;;;;51.25;40.75;;;;;2.52;70.83;102960.66;5078615;27;45699;-63
2022/01/14 01:32:05;;;;;;;;;57.25;38.25;;;;;2.48;71.07;102959.88;5096818;27;46024;-63
2022/01/14 01:34:31;;;;;;;;;43.50;38.00;;;;;2.49;70.41;102963.31;5078685;27;45837;-62
2022/01/14 01:36:56;;;;;;;;;53.00;39.25;;;;;2.48;71.20;102967.66;5077803;27;65899;-61
2022/01/14 01:39:24;;;;;;;;;51.75;41.00;;;;;2.47;70.76;102967.66;5078598;27;45602;-65
2022/01/14 01:41:53;;;;;;;;;44.75;38.50;;;;;2.45;70.72;102970.28;5096785;27;45478;-63
2022/01/14 01:44:19;;;;;;;;;58.75;44.00;;;;;2.44;70.68;102978.97;5096772;27;45232;-62
2022/01/14 01:46:47;;;;;;;;;55.25;45.00;;;;;2.44;70.82;102976.38;5061852;27;45408;-64
2022/01/14 01:49:13;;;;;;;;;63.25;46.75;;;;;2.43;70.81;102971.19;5096615;27;45437;-63
2022/01/14 01:51:38;;;;;;;;;68.50;50.00;;;;;2.43;70.69;102972.06;5096507;27;45445;-66
2022/01/14 01:54:04;;;;;;;;;64.00;48.75;;;;;2.44;71.01;102975.50;5096564;27;45391;-62
2022/01/14 01:56:29;;;;;;;;;69.75;52.50;;;;;2.45;70.80;102969.41;5077307;27;66235;-60
2022/01/14 01:58:56;;;;;;;;;63.00;49.25;;;;;2.44;70.69;102968.56;5077392;27;68675;-64
2022/01/14 02:01:22;;;;;;;;;57.00;44.25;;;;;2.41;70.86;102965.16;5096528;27;46231;-63
2022/01/14 02:03:47;;;;;;;;;65.50;44.50;;;;;2.40;70.93;102976.41;5061265;27;45877;-60
2022/01/14 02:06:14;;;;;;;;;63.50;48.75;;;;;2.37;71.04;102969.53;5079263;27;68580;-62
2022/01/14 02:08:39;;;;;;;;;65.00;50.25;;;;;2.36;71.02;102970.44;5100040;27;45566;-62
2022/01/14 02:11:05;;;;;;;;;62.50;46.75;;;;;2.35;70.86;102960.94;5081372;27;47401;-62
2022/01/14 02:13:31;;;;;;;;;65.50;49.75;;;;;2.37;70.70;102959.16;5099235;27;64585;-63
2022/01/14 02:23:53;;;;;;;;;56.75;44.50;;;;;2.34;70.88;102948.84;5084507;27;45441;-63
2022/01/14 02:26:19;;;;;;;;;60.75;45.00;;;;;2.33;70.86;102949.72;5081486;27;45380;-62
2022/01/14 02:28:49;;;;;;;;;76.25;52.50;;;;;2.30;70.97;102940.25;5081081;27;45571;-61
2022/01/14 02:31:14;;;;;;;;;56.25;40.00;;;;;2.30;71.08;102939.38;5099496;27;48561;-63
2022/01/14 02:33:40;;;;;;;;;58.25;46.50;;;;;2.30;70.94;102936.78;5099577;27;45367;-65
2022/01/14 02:36:07;;;;;;;;;50.75;42.00;;;;;2.32;71.17;102932.44;5098879;27;62372;-62
2022/01/14 02:38:32;;;;;;;;;47.00;39.75;;;;;2.32;71.07;102935.91;5099442;27;45291;-63
2022/01/14 02:40:58;;;;;;;;;56.50;44.50;;;;;2.33;71.12;102935.03;5081281;27;46297;-63
2022/01/14 02:43:25;;;;;;;;;60.00;44.75;;;;;2.33;70.74;102934.16;5081212;27;45442;-62
2022/01/14 02:45:52;;;;;;;;;57.75;43.50;;;;;2.31;70.67;102934.19;5081245;27;45469;-62
2022/01/14 02:48:20;;;;;;;;;62.00;44.75;;;;;2.32;70.69;102935.03;5081440;27;45845;-62
2022/01/14 02:51:01;;;;;;;;;52.50;42.75;;;;;2.32;70.42;102932.44;5080871;27;46032;-62
2022/01/14 02:53:41;;;;;;;;;46.75;34.25;;;;;2.32;70.72;102933.31;5099412;27;45836;-64
2022/01/14 02:56:15;;;;;;;;;42.75;37.50;;;;;2.31;70.73;102926.41;5098780;27;45371;-63
2022/01/14 02:58:41;;;;;;;;;51.50;40.00;;;;;2.29;70.44;102919.50;5081208;27;45316;-62
2022/01/14 03:01:14;;;;;;;;;42.00;31.75;;;;;2.27;70.75;102909.16;5064127;27;45400;-61
2022/01/14 03:03:40;;;;;;;;;57.50;44.25;;;;;2.27;70.52;102911.75;5080678;27;45929;-62
2022/01/14 03:06:06;;;;;;;;;52.75;41.50;;;;;2.27;70.55;102913.47;5081017;27;45473;-63
2022/01/14 03:08:31;;;;;;;;;60.50;44.00;;;;;2.27;70.68;102903.09;5080791;27;45628;-62
2022/01/14 03:11:04;;;;;;;;;63.25;47.00;;;;;2.28;70.45;102899.63;5063790;27;45562;-64
2022/01/14 03:13:30;;;;;;;;;55.75;42.50;;;;;2.25;70.55;102900.53;5080463;27;46047;-62
2022/01/14 03:15:55;;;;;;;;;58.25;39.50;;;;;2.26;70.42;102903.97;5062804;27;66748;-63
2022/01/14 03:18:30;;;;;;;;;61.75;45.75;;;;;2.26;70.33;102901.38;5098373;27;58657;-64
2022/01/14 03:21:08;;;;;;;;;57.00;44.25;;;;;2.24;70.27;102901.44;5080399;27;47232;-64
2022/01/14 03:23:42;;;;;;;;;63.50;49.75;;;;;2.21;70.27;102897.13;5098680;27;45323;-61
2022/01/14 03:26:07;;;;;;;;;55.50;45.75;;;;;2.19;70.52;102896.28;5098890;27;45421;-62
2022/01/14 03:28:32;;;;;;;;;61.25;43.25;;;;;2.18;70.57;102888.53;5097695;27;62045;-63
2022/01/14 03:30:58;;;;;;;;;61.25;44.75;;;;;2.17;70.53;102886.84;5097586;27;70526;-63
2022/01/14 03:33:23;;;;;;;;;60.00;47.25;;;;;2.15;70.49;102886.84;5097793;27;66796;-62
2022/01/14 03:35:48;;;;;;;;;58.75;43.50;;;;;2.15;70.59;102878.22;5097659;27;65815;-64
2022/01/14 03:38:14;;;;;;;;;61.75;44.00;;;;;2.15;70.55;102878.22;5098701;27;45574;-62
2022/01/14 03:40:39;;;;;;;;;60.50;44.75;;;;;2.14;70.76;102877.34;5098300;27;54225;-63
2022/01/14 03:43:05;;;;;;;;;57.00;42.00;;;;;2.14;70.47;102885.13;5079267;27;66537;-62
2022/01/14 03:45:30;;;;;;;;;59.75;42.50;;;;;2.11;70.53;102879.13;5098817;27;45479;-63
2022/01/14 03:47:55;;;;;;;;;49.25;36.75;;;;;2.09;70.50;102884.38;5097961;27;61547;-62
2022/01/14 03:50:21;;;;;;;;;47.75;35.75;;;;;2.08;70.94;102893.03;5098696;27;46008;-61
2022/01/14 03:52:46;;;;;;;;;36.00;24.25;;;;;2.07;70.88;102883.53;5098554;27;45374;-61
2022/01/14 03:55:12;;;;;;;;;42.25;31.00;;;;;2.05;70.88;102883.53;5079869;27;58900;-62
2022/01/14 03:57:37;;;;;;;;;45.25;37.00;;;;;2.04;71.25;102887.00;5098499;27;45223;-63
2022/01/14 04:00:03;;;;;;;;;41.50;31.25;;;;;2.04;71.38;102881.81;5097222;27;72598;-62
2022/01/14 04:02:28;;;;;;;;;41.00;35.00;;;;;2.03;71.58;102887.03;5098112;27;45236;-62
2022/01/14 04:04:54;;;;;;;;;55.50;38.75;;;;;2.04;71.49;102886.16;5097305;27;67814;-62
2022/01/14 04:07:19;;;;;;;;;36.25;32.25;;;;;2.04;71.67;102875.78;5098300;27;45563;-62
2022/01/14 04:09:44;;;;;;;;;42.25;34.75;;;;;2.06;71.67;102879.22;5097102;27;71286;-62
2022/01/14 04:12:16;;;;;;;;;45.25;36.00;;;;;2.06;71.80;102882.66;5097342;27;65454;-63
2022/01/14 04:17:10;;;;;;;;;54.00;40.00;;;;;2.06;71.51;102871.44;5063751;27;45286;-62
2022/01/14 04:19:36;;;;;;;;;55.00;40.00;;;;;2.06;71.20;102868.84;5097338;27;45566;-62
2022/01/14 04:22:01;;;;;;;;;47.75;38.75;;;;;2.10;71.21;102877.44;5078962;27;61913;-63
2022/01/14 04:24:26;;;;;;;;;42.75;37.25;;;;;2.09;71.21;102876.59;5097352;27;59997;-64
2022/01/14 04:26:52;;;;;;;;;39.75;35.25;;;;;2.07;71.35;102866.22;5097128;27;65875;-61
2022/01/14 04:29:17;;;;;;;;;47.75;35.75;;;;;2.06;71.35;102874.88;5096337;27;55695;-62
2022/01/14 04:31:42;;;;;;;;;54.75;40.75;;;;;2.06;71.49;102879.22;5097712;27;45311;-64
2022/01/14 04:34:08;;;;;;;;;58.25;39.00;;;;;2.07;71.11;102873.16;5097877;27;45591;-63
2022/01/14 04:36:33;;;;;;;;;48.25;39.00;;;;;2.06;71.02;102869.69;5097787;27;45545;-64
2022/01/14 04:38:59;;;;;;;;;49.50;41.50;;;;;2.07;70.98;102870.56;5096645;27;68215;-62
2022/01/14 04:41:24;;;;;;;;;48.75;41.50;;;;;2.08;71.40;102872.28;5078528;27;64943;-62
2022/01/14 04:43:49;;;;;;;;;46.25;35.50;;;;;2.06;71.26;102867.09;5079125;27;47802;-61
2022/01/14 04:47:18;;;;;;;;;53.50;37.75;;;;;2.11;70.87;102871.34;5078612;27;59725;-63
2022/01/14 04:49:09;;;;;;;;;39.25;33.25;;;;;2.06;71.58;102861.91;5083566;27;46019;-63
2022/01/14 04:51:37;;;;;;;;;42.75;37.75;;;;;2.05;71.44;102865.38;5096666;27;64179;-61
2022/01/14 04:54:03;;;;;;;;;46.50;37.75;;;;;2.05;70.93;102856.75;5097503;27;45351;-63
2022/01/14 04:56:31;;;;;;;;;43.25;36.50;;;;;2.03;70.85;102858.53;5097443;27;45588;-61
2022/01/14 04:58:57;;;;;;;;;54.50;40.25;;;;;2.02;70.93;102851.63;5079224;27;47258;-61
2022/01/14 05:01:23;;;;;;;;;47.25;38.75;;;;;2.03;70.63;102850.75;5079132;27;45809;-64
2022/01/14 05:03:48;;;;;;;;;50.75;39.25;;;;;2.01;70.67;102844.72;5097404;27;45546;-63
2022/01/14 05:06:14;;;;;;;;;72.75;50.50;;;;;1.98;70.82;102837.81;5096526;27;62327;-64
2022/01/14 05:08:40;;;;;;;;;59.75;47.25;;;;;1.95;70.82;102837.88;5097008;27;46380;-61
2022/01/14 05:14:00;;;;;;;;;48.50;36.25;;;;;1.91;71.20;102829.28;5077249;27;45298;-62
2022/01/14 05:16:25;;;;;;;;;41.75;34.50;;;;;1.92;71.33;102830.13;5097012;27;47685;-63
2022/01/14 05:18:51;;;;;;;;;44.75;35.25;;;;;1.92;71.56;102835.31;5095984;27;71835;-62
2022/01/14 05:21:17;;;;;;;;;50.25;39.75;;;;;1.90;71.63;102832.75;5097026;27;45262;-63
2022/01/14 05:23:42;;;;;;;;;43.50;36.00;;;;;1.90;71.96;102832.75;5097237;27;45257;-62
2022/01/14 05:26:08;;;;;;;;;47.50;35.75;;;;;1.91;71.99;102834.47;5097115;27;45271;-63
2022/01/14 05:28:33;;;;;;;;;46.75;39.00;;;;;1.89;72.12;102836.25;5096424;27;46296;-61
2022/01/14 05:30:59;;;;;;;;;50.50;36.00;;;;;1.88;72.17;102831.94;5096929;27;45221;-61
2022/01/14 05:33:24;;;;;;;;;45.25;34.75;;;;;1.88;72.26;102829.34;5095861;27;67903;-63
2022/01/14 05:35:49;;;;;;;;;31.00;24.25;;;;;1.91;72.20;102833.59;5078831;27;45618;-63
2022/01/14 05:38:15;;;;;;;;;42.25;37.25;;;;;1.92;72.64;102843.97;5095838;27;67313;-62
2022/01/14 05:40:40;;;;;;;;;45.75;36.00;;;;;1.92;72.63;102845.69;5097938;27;45413;-63
2022/01/14 05:43:06;;;;;;;;;44.75;33.25;;;;;1.93;72.76;102855.19;5100684;27;45387;-62
2022/01/14 05:45:31;;;;;;;;;43.50;34.75;;;;;1.96;72.56;102856.91;5099663;27;62814;-62
2022/01/14 05:47:56;;;;;;;;;41.75;32.50;;;;;1.98;72.60;102852.53;5100220;27;45415;-63
2022/01/14 05:50:23;;;;;;;;;50.50;37.50;;;;;1.98;72.86;102855.13;5100179;27;45420;-62
2022/01/14 05:52:49;;;;;;;;;33.50;30.25;;;;;1.98;72.60;102855.13;5100382;27;45409;-62
2022/01/14 05:55:15;;;;;;;;;39.00;31.00;;;;;1.99;72.55;102856.84;5100494;27;45726;-63
2022/01/14 05:57:41;;;;;;;;;41.75;32.75;;;;;2.00;72.65;102861.16;5081835;27;45268;-62
2022/01/14 06:00:16;;;;;;;;;36.75;29.50;;;;;1.99;72.54;102859.44;5100137;27;45385;-63
2022/01/14 06:02:42;;;;;;;;;39.00;34.75;;;;;1.98;72.21;102855.97;5066057;27;45268;-63
2022/01/14 06:05:07;;;;;;;;;47.00;36.00;;;;;1.98;72.30;102857.72;5100174;27;45249;-62
2022/01/14 06:07:33;;;;;;;;;42.00;36.00;;;;;1.99;72.62;102867.22;5099551;27;46195;-63
2022/01/14 06:09:58;;;;;;;;;40.00;32.50;;;;;1.98;72.53;102861.16;5081879;27;45278;-63
2022/01/14 06:12:23;;;;;;;;;43.75;32.75;;;;;2.01;72.61;102860.28;5081108;27;56191;-62
2022/01/14 06:14:49;;;;;;;;;39.75;32.25;;;;;2.00;72.16;102855.97;5100029;27;45304;-64
2022/01/14 06:17:14;;;;;;;;;46.50;37.00;;;;;1.99;72.24;102852.50;5098954;27;70279;-62
2022/01/14 06:19:39;;;;;;;;;41.25;36.75;;;;;2.00;71.70;102855.97;5098671;27;72133;-62
2022/01/14 06:22:05;;;;;;;;;37.00;33.25;;;;;2.01;71.87;102870.66;5099075;27;62666;-61
2022/01/14 06:24:30;;;;;;;;;36.50;29.50;;;;;2.00;71.54;102862.00;5099880;27;45570;-62
2022/01/14 06:26:56;;;;;;;;;42.00;33.75;;;;;1.98;71.62;102863.75;5098468;27;70316;-62
2022/01/14 06:29:22;;;;;;;;;44.00;35.50;;;;;1.96;71.92;102855.13;5098007;27;67752;-62
2022/01/14 06:31:47;;;;;;;;;38.50;32.75;;;;;1.95;71.58;102860.38;5099385;27;45345;-64
2022/01/14 06:34:14;;;;;;;;;46.75;33.25;;;;;1.94;71.51;102864.69;5099461;27;45268;-61
2022/01/14 06:36:41;;;;;;;;;46.50;36.00;;;;;1.95;71.43;102865.56;5080519;27;47191;-62
2022/01/14 06:39:06;;;;;;;;;43.00;30.00;;;;;1.92;71.50;102866.44;5099263;27;45327;-63
2022/01/14 06:41:32;;;;;;;;;45.75;34.50;;;;;1.91;71.66;102867.31;5081221;27;45443;-61
2022/01/14 06:43:58;;;;;;;;;37.00;32.25;;;;;1.89;71.70;102866.47;5099389;27;45628;-63
2022/01/14 06:46:23;;;;;;;;;42.00;34.25;;;;;1.89;71.48;102867.34;5099244;27;45197;-62
2022/01/14 06:48:48;;;;;;;;;37.50;29.75;;;;;1.89;71.65;102861.28;5099162;27;45275;-63
2022/01/14 06:51:15;;;;;;;;;45.50;33.25;;;;;1.88;71.44;102860.44;5080403;27;45381;-63
2022/01/14 06:53:41;;;;;;;;;43.75;38.50;;;;;1.87;71.36;102866.50;5098530;27;45565;-63
2022/01/14 06:56:07;;;;;;;;;45.75;33.75;;;;;1.88;71.21;102870.81;5098868;27;46235;-62
2022/01/14 06:58:32;;;;;;;;;47.75;33.00;;;;;1.87;70.81;102866.50;5099103;27;45394;-62
2022/01/14 07:00:58;;;;;;;;;46.25;33.25;;;;;1.87;71.00;102863.03;5099133;27;45423;-61
2022/01/14 07:03:23;;;;;;;;;51.00;33.25;;;;;1.84;70.94;102858.78;5098139;27;66217;-62
2022/01/14 07:05:49;;;;;;;;;39.25;32.75;;;;;1.81;71.03;102861.41;5098754;27;46215;-63
2022/01/14 07:08:14;;;;;;;;;55.50;38.75;;;;;1.78;70.91;102858.84;5098686;27;45389;-61
2022/01/14 07:10:40;;;;;;;;;48.75;37.25;;;;;1.76;71.18;102860.63;5097985;27;67779;-62
2022/01/14 07:13:05;;;;;;;;;58.25;42.50;;;;;1.73;71.28;102860.66;5098738;27;45507;-62
2022/01/14 07:15:31;;;;;;;;;54.25;35.75;;;;;1.72;71.21;102853.75;5098529;27;45983;-62
2022/01/14 07:17:56;;;;;;;;;50.50;37.75;;;;;1.70;71.17;102861.56;5098453;27;45461;-62
2022/01/14 07:20:22;;;;;;;;;46.25;39.00;;;;;1.68;71.42;102857.25;5097596;27;69165;-63
2022/01/14 07:22:47;;;;;;;;;52.50;41.25;;;;;1.66;71.44;102846.94;5098555;27;45350;-65
2022/01/14 07:25:13;;;;;;;;;54.75;41.25;;;;;1.65;71.10;102849.53;5098290;27;45346;-62
2022/01/14 07:27:38;;;;;;;;;51.75;42.50;;;;;1.65;70.98;102842.63;5079544;27;45275;-61
2022/01/14 07:30:07;;;;;;;;;49.75;41.25;;;;;1.64;70.97;102840.91;5097503;27;55336;-60
2022/01/14 07:32:32;;;;;;;;;54.75;44.00;;;;;1.60;70.80;102845.25;5080297;27;45408;-61
2022/01/14 07:34:58;;;;;;;;;61.25;46.00;;;;;1.55;71.14;102849.69;5079736;27;46904;-62
2022/01/14 07:37:23;;;;;;;;;55.75;42.75;;;;;1.55;71.18;102851.41;5097598;27;63331;-62
2022/01/14 07:39:49;;;;;;;;;55.00;42.50;;;;;1.52;71.16;102852.31;5098245;27;45420;-64
2022/01/14 07:42:14;;;;;;;;;62.00;46.25;;;;;1.51;71.33;102854.91;5097745;27;45398;-63
2022/01/14 07:44:39;;;;;;;;;58.25;44.50;;;;;1.48;71.60;102854.06;5097317;27;70902;-63
2022/01/14 07:47:05;;;;;;;;;58.00;46.50;;;;;1.47;71.45;102849.75;5098431;27;45241;-63
2022/01/14 07:49:31;;;;;;;;;65.50;50.00;;;;;1.47;71.53;102849.75;5098342;27;45228;-63
2022/01/14 07:51:56;;;;;;;;;72.50;51.50;;;;;1.46;71.65;102840.28;5106180;27;65015;-61
2022/01/14 07:54:21;;;;;;;;;64.25;46.50;;;;;1.50;71.59;102851.47;5117840;27;70900;-62
2022/01/14 07:56:51;;;;;;;;;74.50;53.50;;;;;1.50;71.38;102858.38;5117907;27;71767;-63
2022/01/14 07:59:17;;;;;;;;;73.00;55.25;;;;;1.48;71.30;102866.19;5118740;27;45308;-60
2022/01/14 08:01:43;;;;;;;;;68.50;51.00;;;;;1.48;71.60;102861.00;5100520;27;45311;-62
2022/01/14 08:04:08;;;;;;;;;65.75;51.00;;;;;1.48;71.44;102864.44;5099182;27;45586;-63
2022/01/14 08:06:37;;;;;;;;;62.25;47.25;;;;;1.50;71.60;102863.56;5118915;27;45381;-61
2022/01/14 08:09:03;;;;;;;;;67.50;52.00;;;;;1.51;71.15;102860.97;5084293;27;45289;-64
2022/01/14 08:11:29;;;;;;;;;67.75;52.00;;;;;1.52;71.34;102852.31;5100367;27;45540;-62
2022/01/14 08:13:54;;;;;;;;;114.25;97.75;;;;;1.56;71.40;102853.97;5118316;27;45224;-62
2022/01/14 08:16:19;;;;;;;;;135.50;107.75;;;;;1.58;71.11;102866.91;5118528;27;45262;-64
2022/01/14 08:18:45;;;;;;;;;79.75;61.75;;;;;1.59;71.36;102859.09;5117644;27;64329;-61
2022/01/14 08:21:10;;;;;;;;;70.75;53.50;;;;;1.60;71.28;102859.97;5118481;27;45341;-62
2022/01/14 08:23:36;;;;;;;;;60.75;46.00;;;;;1.58;71.49;102861.72;5117727;27;68067;-61
2022/01/14 08:26:01;;;;;;;;;60.50;46.00;;;;;1.59;71.32;102868.63;5117509;27;70623;-61
2022/01/14 08:28:26;;;;;;;;;58.75;46.50;;;;;1.59;71.70;102868.63;5117541;27;55602;-61
2022/01/14 08:30:52;;;;;;;;;56.50;46.00;;;;;1.60;71.99;102872.94;5118532;27;45423;-62
2022/01/14 08:33:18;;;;;;;;;64.50;45.25;;;;;1.60;71.95;102873.78;5118247;27;46166;-60
2022/01/14 08:35:43;;;;;;;;;63.50;48.00;;;;;1.63;71.94;102872.88;5082921;27;45518;-62
2022/01/14 08:38:09;;;;;;;;;65.75;48.75;;;;;1.68;71.66;102884.06;5100036;27;45941;-59
2022/01/14 08:40:34;;;;;;;;;60.00;45.75;;;;;1.71;71.94;102888.31;5118190;27;45551;-60
2022/01/14 08:43:00;;;;;;;;;63.25;48.25;;;;;1.73;72.15;102883.97;5099036;27;66759;-61
2022/01/14 08:45:25;;;;;;;;;57.75;40.00;;;;;1.76;72.20;102887.41;5099964;27;45445;-63
2022/01/14 08:47:54;;;;;;;;;69.75;54.00;;;;;1.80;72.16;102884.78;5117364;27;61041;-62
2022/01/14 08:50:23;;;;;;;;;68.50;50.50;;;;;1.83;72.28;102885.56;5100190;27;45568;-63
2022/01/14 08:52:49;;;;;;;;;67.25;51.25;;;;;1.91;72.43;102888.06;5099795;27;46277;-60
2022/01/14 08:55:16;;;;;;;;;67.00;50.75;;;;;1.93;72.39;102879.41;5117655;27;45235;-63
2022/01/14 08:57:42;;;;;;;;;56.00;44.50;;;;;1.97;72.40;102874.16;5117947;27;45307;-61
2022/01/14 09:00:08;;;;;;;;;60.75;45.00;;;;;2.00;72.61;102872.38;5099492;27;45262;-61
2022/01/14 09:02:34;;;;;;;;;51.50;38.00;;;;;2.01;72.63;102873.25;5082328;27;45416;-63
2022/01/14 09:04:59;;;;;;;;;43.25;36.25;;;;;2.02;72.86;102873.22;5117578;27;45449;-62
2022/01/14 09:07:26;;;;;;;;;50.50;38.50;;;;;2.05;72.85;102870.56;5117277;27;65689;-62
2022/01/14 09:09:54;;;;;;;;;48.00;34.75;;;;;2.08;72.92;102864.50;5117746;27;45549;-62
2022/01/14 09:12:19;;;;;;;;;46.00;36.25;;;;;2.11;73.20;102867.03;5099756;27;45541;-61
2022/01/14 09:14:45;;;;;;;;;43.00;35.50;;;;;2.15;73.33;102873.03;5104224;27;56365;-61
2022/01/14 09:17:10;;;;;;;;;44.00;38.00;;;;;2.20;73.25;102871.22;5101692;27;45441;-63
2022/01/14 09:19:36;;;;;;;;;45.50;33.75;;;;;2.25;73.42;102863.34;5078118;27;45438;-61
2022/01/14 09:22:01;;;;;;;;;37.25;36.00;;;;;2.30;73.37;102864.16;5095997;27;46467;-61
2022/01/14 09:24:27;;;;;;;;;56.25;41.75;;;;;2.36;73.52;102861.44;5099189;27;45331;-61
2022/01/14 09:26:52;;;;;;;;;60.00;43.75;;;;;2.41;73.66;102867.44;5094834;27;66268;-64
2022/01/14 09:29:19;;;;;;;;;60.75;47.75;;;;;2.47;73.76;102862.13;5094488;27;66898;-60
2022/01/14 09:31:44;;;;;;;;;55.50;44.00;;;;;2.54;73.37;102859.44;5095643;27;46172;-60
2022/01/14 09:34:10;;;;;;;;;55.00;44.00;;;;;2.59;73.53;102857.63;5078444;27;45421;-62
2022/01/14 09:36:35;;;;;;;;;59.00;46.75;;;;;2.69;73.74;102859.16;5078102;27;45475;-63
2022/01/14 09:39:01;;;;;;;;;58.50;45.00;;;;;2.79;73.93;102859.88;5099226;27;58014;-63
2022/01/14 09:41:26;;;;;;;;;66.50;49.00;;;;;2.93;74.21;102852.66;5082574;27;45409;-61
2022/01/14 09:43:52;;;;;;;;;64.50;47.75;;;;;3.14;74.46;102860.09;5105304;27;51033;-61
2022/01/14 09:46:18;;;;;;;;;62.25;47.00;;;;;3.37;74.27;102863.06;5091086;27;45495;-61
2022/01/14 09:48:43;;;;;;;;;65.75;50.00;;;;;3.63;74.12;102859.06;5107974;27;64450;-61
2022/01/14 09:51:08;;;;;;;;;71.50;54.75;;;;;3.92;73.34;102864.50;5061661;27;71658;-60
2022/01/14 09:53:34;;;;;;;;;61.75;50.25;;;;;4.22;72.86;102869.88;5105235;27;61723;-62
2022/01/14 09:56:01;;;;;;;;;64.50;50.00;;;;;4.52;72.37;102863.06;5081185;27;45466;-61
2022/01/14 09:58:28;;;;;;;;;61.75;46.25;;;;;4.82;72.02;102867.50;5077699;27;45404;-63
2022/01/14 10:01:10;;;;;;;;;65.00;49.50;;;;;5.16;70.77;102872.66;5077158;27;45523;-62
2022/01/14 10:03:35;;;;;;;;;57.50;45.50;;;;;5.48;69.89;102872.63;5077395;27;45734;-61
2022/01/14 10:06:01;;;;;;;;;55.00;42.50;;;;;5.76;68.80;102866.59;5072422;27;45241;-61
2022/01/14 10:08:27;;;;;;;;;54.25;41.25;;;;;6.05;68.28;102860.50;5077074;27;45294;-61
2022/01/14 10:10:59;;;;;;;;;57.75;42.50;;;;;6.37;67.25;102860.34;5078311;27;46342;-62
2022/01/14 10:13:34;;;;;;;;;54.50;41.75;;;;;6.69;66.54;102853.16;5076509;27;45568;-61
2022/01/14 10:16:04;;;;;;;;;54.75;41.50;;;;;6.95;65.78;102860.06;5052754;27;45331;-65
2022/01/14 10:18:30;;;;;;;;;58.25;42.75;;;;;7.23;65.13;102864.31;5062749;27;45652;-62
2022/01/14 10:21:03;;;;;;;;;58.00;44.50;;;;;7.51;64.29;102854.59;5077582;27;46127;-63
2022/01/14 10:23:48;;;;;;;;;54.00;44.50;;;;;7.71;63.76;102849.41;5079568;27;45534;-61
2022/01/14 10:26:14;;;;;;;;;53.25;43.75;;;;;7.95;63.22;102845.91;5099655;27;45439;-62
2022/01/14 10:28:43;;;;;;;;;62.00;46.00;;;;;8.17;62.93;102851.97;5092086;27;45644;-63
2022/01/14 10:31:09;;;;;;;;;74.25;54.00;;;;;8.41;62.33;102856.25;5080308;27;45556;-63
2022/01/14 10:33:34;;;;;;;;;63.75;49.50;;;;;8.62;61.42;102859.75;5079355;27;73286;-62
2022/01/14 10:36:00;;;;;;;;;71.75;54.25;;;;;8.80;61.05;102865.13;5097509;27;67308;-62
2022/01/14 10:38:26;;;;;;;;;70.25;51.00;;;;;8.99;60.68;102865.16;5080127;27;45292;-62
2022/01/14 10:40:58;;;;;;;;;77.50;58.25;;;;;9.20;59.73;102864.22;5098079;27;45545;-61
2022/01/14 10:43:31;;;;;;;;;68.25;53.50;;;;;9.35;58.87;102864.41;5097877;27;45495;-63
2022/01/14 10:45:56;;;;;;;;;59.00;47.25;;;;;9.41;58.40;102861.50;5100432;27;45391;-64
2022/01/14 10:48:41;;;;;;;;;60.75;46.00;;;;;9.50;57.56;102861.09;5079826;27;45358;-61
2022/01/14 10:51:10;;;;;;;;;62.25;47.00;;;;;9.52;56.83;102853.16;5079580;27;47459;-59
2022/01/14 10:53:40;;;;;;;;;58.75;46.25;;;;;9.47;56.33;102852.50;5097720;27;45727;-64
2022/01/14 10:56:10;;;;;;;;;52.00;40.75;;;;;9.41;55.72;102845.75;5098463;27;45357;-63
2022/01/14 10:58:37;;;;;;;;;57.50;45.00;;;;;9.34;56.30;102845.22;5107235;27;45482;-61
2022/01/14 11:01:07;;;;;;;;;51.00;39.00;;;;;9.27;56.11;102832.47;5100191;27;46642;-62
2022/01/14 11:03:40;;;;;;;;;62.25;45.00;;;;;9.17;55.68;102838.13;5066213;27;45740;-62
2022/01/14 11:06:41;;;;;;;;;58.75;43.25;;;;;9.06;55.56;102830.72;5080823;27;45449;-60
2022/01/14 11:09:08;;;;;;;;;52.25;39.00;;;;;8.94;55.55;102823.44;5052042;27;45274;-61
2022/01/14 11:11:35;;;;;;;;;48.75;39.75;;;;;8.88;55.66;102816.66;5081014;27;46260;-60
2022/01/14 11:14:01;;;;;;;;;55.25;43.00;;;;;8.87;56.08;102820.19;5097454;27;45950;-61
2022/01/14 11:16:27;;;;;;;;;53.75;41.25;;;;;8.87;56.05;102808.88;5100220;27;45466;-63
2022/01/14 11:18:54;;;;;;;;;59.00;44.25;;;;;8.88;56.33;102800.09;5079487;27;45450;-61
2022/01/14 11:24:04;;;;;;;;;59.75;47.00;;;;;8.89;55.56;102804.44;5098287;27;45371;-63
2022/01/14 11:26:35;;;;;;;;;60.50;48.25;;;;;8.87;55.72;102814.13;5083734;27;46879;-63
2022/01/14 11:29:30;;;;;;;;;68.75;52.25;;;;;8.82;55.96;102814.31;5085550;27;45391;-62
2022/01/14 11:31:57;;;;;;;;;61.00;48.75;;;;;8.82;55.96;102810.84;5081780;27;46529;-63
2022/01/14 11:34:33;;;;;;;;;55.75;44.75;;;;;8.86;56.15;102815.03;5085934;27;45915;-64
2022/01/14 11:37:22;;;;;;;;;60.00;44.75;;;;;8.90;55.87;102808.75;5089210;27;45465;-62
2022/01/14 11:39:55;;;;;;;;;55.25;44.25;;;;;8.96;56.00;102807.59;5083908;27;45170;-63
2022/01/14 11:42:37;;;;;;;;;57.50;45.75;;;;;9.00;55.64;102790.81;5082452;27;45622;-63
2022/01/14 11:45:05;;;;;;;;;57.25;46.00;;;;;9.06;55.50;102786.13;5081290;27;45442;-63
2022/01/14 11:47:40;;;;;;;;;55.50;45.75;;;;;9.08;54.58;102791.31;5112979;27;45273;-60
2022/01/14 11:50:07;;;;;;;;;54.25;43.00;;;;;9.04;54.00;102782.72;5088739;27;45645;-61